createdAt,value
2018-09-21T00:05:27.158Z,15.00
2018-09-21T00:15:28.435Z,14.80
2018-09-21T00:25:29.726Z,14.70
2018-09-21T00:35:31.046Z,14.60
2018-09-21T00:45:32.319Z,14.60
2018-09-21T00:55:33.771Z,14.40
2018-09-21T01:05:35.027Z,14.50
2018-09-21T01:15:36.395Z,14.30
2018-09-21T01:25:37.686Z,14.20
2018-09-21T01:35:38.955Z,14.30
2018-09-21T01:45:40.219Z,14.20
2018-09-21T01:55:41.513Z,14.20
2018-09-21T02:05:42.793Z,14.10
2018-09-21T02:15:44.065Z,14.00
2018-09-21T02:25:46.101Z,13.90
2018-09-21T02:35:47.395Z,13.90
2018-09-21T02:45:48.667Z,13.90
2018-09-21T02:55:49.982Z,13.80
2018-09-21T03:05:51.246Z,13.80
2018-09-21T03:15:52.535Z,13.60
2018-09-21T03:25:53.815Z,13.50
2018-09-21T03:35:55.078Z,13.50
2018-09-21T03:45:56.345Z,13.50
2018-09-21T03:55:57.611Z,13.50
2018-09-21T04:05:58.894Z,13.50
2018-09-21T04:16:00.161Z,13.30
2018-09-21T04:26:01.430Z,13.20
2018-09-21T04:36:03.505Z,13.30
2018-09-21T04:46:04.768Z,13.30
2018-09-21T04:56:06.034Z,13.20
2018-09-21T05:06:07.286Z,13.30
2018-09-21T05:16:08.546Z,13.20
2018-09-21T05:26:09.814Z,13.30
2018-09-21T05:36:11.066Z,13.50
2018-09-21T05:46:12.330Z,13.70
2018-09-21T05:56:14.449Z,14.40
2018-09-21T06:06:15.666Z,14.40
2018-09-21T06:16:16.964Z,14.80
2018-09-21T06:26:18.232Z,15.20
2018-09-21T06:36:19.500Z,15.80
2018-09-21T06:46:20.779Z,16.40
2018-09-21T06:56:22.035Z,17.40
2018-09-21T07:06:23.408Z,17.70
2018-09-21T07:16:24.680Z,18.10
2018-09-21T07:26:25.942Z,18.50
2018-09-21T07:36:27.239Z,19.00
2018-09-21T07:46:28.518Z,19.60
2018-09-21T07:56:29.832Z,19.90
2018-09-21T08:06:31.105Z,20.20
2018-09-21T08:16:32.374Z,20.80
2018-09-21T08:26:34.453Z,22.10
2018-09-21T08:36:35.711Z,22.10
2018-09-21T08:46:36.985Z,22.80
2018-09-21T08:56:38.246Z,26.50
2018-09-21T09:06:39.502Z,30.50
2018-09-21T09:16:41.252Z,34.70
2018-09-21T09:26:42.490Z,37.30
2018-09-21T09:36:44.555Z,36.60
2018-09-21T09:46:45.934Z,36.50
2018-09-21T09:56:47.253Z,38.50
2018-09-21T10:06:48.526Z,33.70
2018-09-21T10:16:49.824Z,30.80
2018-09-21T10:26:51.085Z,30.00
2018-09-21T10:36:52.363Z,33.90
2018-09-21T10:46:54.370Z,27.90
2018-09-21T10:56:56.402Z,26.10
2018-09-21T11:06:57.658Z,26.00
2018-09-21T11:16:58.923Z,25.70
2018-09-21T11:27:00.211Z,25.60
2018-09-21T11:37:01.615Z,25.50
2018-09-21T11:47:02.929Z,25.40
2018-09-21T11:57:04.187Z,25.70
2018-09-21T12:07:05.431Z,25.40
2018-09-21T12:17:06.737Z,25.50
2018-09-21T12:27:07.951Z,25.40
2018-09-21T12:37:09.999Z,25.50
2018-09-21T12:47:11.236Z,25.50
2018-09-21T12:57:12.512Z,25.30
2018-09-21T13:07:13.787Z,25.40
2018-09-21T13:17:15.075Z,25.30
2018-09-21T13:27:17.110Z,25.30
2018-09-21T13:37:18.855Z,25.30
2018-09-21T13:47:20.907Z,25.30
2018-09-21T13:57:22.187Z,25.30
2018-09-21T14:07:23.436Z,25.40
2018-09-21T14:17:24.813Z,25.10
2018-09-21T14:27:26.077Z,24.90
2018-09-21T14:37:27.342Z,24.80
2018-09-21T14:47:28.755Z,25.00
2018-09-21T15:07:37.980Z,24.70
2018-09-21T15:17:39.358Z,24.80
2018-09-21T15:27:40.626Z,24.60
2018-09-21T15:37:41.903Z,24.70
2018-09-21T15:47:43.945Z,24.00
2018-09-21T15:57:45.215Z,23.90
2018-09-21T16:07:46.491Z,23.50
2018-09-21T16:17:47.729Z,23.10
2018-09-21T16:27:48.998Z,22.70
2018-09-21T16:37:50.240Z,22.20
2018-09-21T16:47:51.526Z,21.50
2018-09-21T16:57:52.860Z,21.10
2018-09-21T17:07:54.959Z,20.40
2018-09-21T17:17:57.274Z,20.40
2018-09-21T17:27:58.537Z,20.10
2018-09-21T17:37:59.815Z,19.70
2018-09-21T17:48:01.051Z,19.40
2018-09-21T17:58:03.495Z,19.20
2018-09-21T18:08:04.722Z,18.90
2018-09-21T18:18:05.971Z,18.70
2018-09-21T18:28:07.245Z,18.40
2018-09-21T18:38:08.500Z,18.20
2018-09-21T18:48:10.534Z,18.00
2018-09-21T18:58:11.860Z,18.00
2018-09-21T19:08:13.152Z,18.00
2018-09-21T19:18:14.453Z,17.80
2018-09-21T19:28:15.750Z,17.60
2018-09-21T19:38:17.058Z,17.60
2018-09-21T19:48:18.328Z,17.50
2018-09-21T19:58:19.553Z,17.30
2018-09-21T20:08:20.804Z,17.30
2018-09-21T20:18:22.047Z,17.20
2018-09-21T20:28:23.315Z,17.10
2018-09-21T20:38:24.579Z,17.00
2018-09-21T20:48:25.838Z,16.80
2018-09-21T20:58:27.099Z,16.70
2018-09-21T21:08:28.368Z,16.60
2018-09-21T21:18:29.747Z,16.60
2018-09-21T21:28:31.024Z,16.60
2018-09-21T21:38:32.261Z,16.50
2018-09-21T21:48:33.506Z,16.30
2018-09-21T21:58:34.739Z,16.20
2018-09-21T22:08:35.972Z,16.20
2018-09-21T22:18:37.216Z,16.10
2018-09-21T22:28:38.478Z,16.00
2018-09-21T22:38:39.738Z,16.00
2018-09-21T22:48:41.008Z,16.00
2018-09-21T22:58:42.289Z,15.90
2018-09-21T23:08:43.606Z,15.80
2018-09-21T23:18:44.906Z,15.90
2018-09-21T23:28:46.220Z,16.00
2018-09-21T23:38:47.470Z,16.00
2018-09-21T23:48:48.720Z,16.20
2018-09-21T23:58:49.985Z,16.80
